createdAt,value
2023-01-17T00:00:10.855Z,48.34
2023-01-17T00:01:10.777Z,46.73
2023-01-17T00:02:10.771Z,46.73
2023-01-17T00:03:10.772Z,47.53
2023-01-17T00:04:10.809Z,46.57
2023-01-17T00:05:10.742Z,44.63
2023-01-17T00:06:10.736Z,44.79
2023-01-17T00:07:10.728Z,45.12
2023-01-17T00:08:10.715Z,45.28
2023-01-17T00:09:10.721Z,49.31
2023-01-17T00:10:10.700Z,45.76
2023-01-17T00:11:10.685Z,45.92
2023-01-17T00:12:10.706Z,45.44
2023-01-17T00:13:10.677Z,50.11
2023-01-17T00:14:10.662Z,47.70
2023-01-17T00:15:10.653Z,45.92
2023-01-17T00:16:10.638Z,47.05
2023-01-17T00:17:10.643Z,44.63
2023-01-17T00:18:10.621Z,45.76
2023-01-17T00:19:10.605Z,45.12
2023-01-17T00:20:10.595Z,47.05
2023-01-17T00:21:10.586Z,47.53
2023-01-17T00:22:10.576Z,46.08
2023-01-17T00:23:10.601Z,44.79
2023-01-17T00:24:10.548Z,44.63
2023-01-17T00:25:10.561Z,45.92
2023-01-17T00:26:10.543Z,44.31
2023-01-17T00:27:10.542Z,44.63
2023-01-17T00:28:10.519Z,46.08
2023-01-17T00:29:10.524Z,45.44
2023-01-17T00:30:10.566Z,43.83
2023-01-17T00:31:10.511Z,44.31
2023-01-17T00:32:10.493Z,44.63
2023-01-17T00:33:10.477Z,45.76
2023-01-17T00:34:10.469Z,46.08
2023-01-17T00:35:10.474Z,46.73
2023-01-17T00:36:10.462Z,46.73
2023-01-17T00:37:10.430Z,44.47
2023-01-17T00:38:10.444Z,45.12
2023-01-17T00:39:10.404Z,47.21
2023-01-17T00:40:10.402Z,45.60
2023-01-17T00:41:10.413Z,47.70
2023-01-17T00:42:10.383Z,45.44
2023-01-17T00:43:10.395Z,45.28
2023-01-17T00:44:10.352Z,48.02
2023-01-17T00:45:10.352Z,48.50
2023-01-17T00:46:10.512Z,48.66
2023-01-17T00:47:10.345Z,46.08
2023-01-17T00:48:10.336Z,46.08
2023-01-17T00:49:10.300Z,47.53
2023-01-17T00:50:10.290Z,48.18
2023-01-17T00:51:10.301Z,53.33
2023-01-17T00:52:10.299Z,46.57
2023-01-17T00:53:10.298Z,46.73
2023-01-17T00:54:10.265Z,45.76
2023-01-17T00:55:10.268Z,46.25
2023-01-17T00:56:10.254Z,45.92
2023-01-17T00:57:10.249Z,48.98
2023-01-17T00:58:10.214Z,50.11
2023-01-17T00:59:10.245Z,46.73
2023-01-17T01:00:10.211Z,46.41
2023-01-17T01:01:10.335Z,48.34
2023-01-17T01:02:10.355Z,48.34
2023-01-17T01:03:10.228Z,49.15
2023-01-17T01:04:10.166Z,47.37
2023-01-17T01:05:10.168Z,45.60
2023-01-17T01:06:10.154Z,45.76
2023-01-17T01:07:10.137Z,44.96
2023-01-17T01:08:10.152Z,45.76
2023-01-17T01:09:10.124Z,48.66
2023-01-17T01:10:10.116Z,50.11
2023-01-17T01:11:10.105Z,49.63
2023-01-17T01:12:10.105Z,48.66
2023-01-17T01:13:10.088Z,46.25
2023-01-17T01:14:10.071Z,46.25
2023-01-17T01:15:10.059Z,47.05
2023-01-17T01:16:10.130Z,45.44
2023-01-17T01:17:10.063Z,45.28
2023-01-17T01:18:10.027Z,45.44
2023-01-17T01:19:10.034Z,49.79
2023-01-17T01:20:10.039Z,46.57
2023-01-17T01:21:10.005Z,45.92
2023-01-17T01:22:10.030Z,45.44
2023-01-17T01:23:10.024Z,48.66
2023-01-17T01:24:09.972Z,48.18
2023-01-17T01:25:09.981Z,48.50
2023-01-17T01:26:09.973Z,48.18
2023-01-17T01:27:09.966Z,46.08
2023-01-17T01:28:09.936Z,47.53
2023-01-17T01:29:09.949Z,46.08
2023-01-17T01:30:09.961Z,45.76
2023-01-17T01:31:09.932Z,46.57
2023-01-17T01:32:09.902Z,45.44
2023-01-17T01:33:09.904Z,46.89
2023-01-17T01:34:09.880Z,45.60
2023-01-17T01:35:09.874Z,46.25
2023-01-17T01:36:09.878Z,45.44
2023-01-17T01:37:09.849Z,48.02
2023-01-17T01:38:09.841Z,50.60
2023-01-17T01:39:09.823Z,46.41
2023-01-17T01:40:09.817Z,46.25
2023-01-17T01:41:09.842Z,55.91
2023-01-17T01:42:09.803Z,49.47
2023-01-17T01:43:09.799Z,45.12
2023-01-17T01:44:09.776Z,44.96
2023-01-17T01:45:41.725Z,48.02
2023-01-17T01:46:09.769Z,47.70
2023-01-17T01:47:09.755Z,45.44
2023-01-17T01:48:09.759Z,44.79
2023-01-17T01:49:09.777Z,45.44
2023-01-17T01:50:09.723Z,44.63
2023-01-17T01:51:09.780Z,45.28
2023-01-17T01:52:09.715Z,48.66
2023-01-17T01:53:09.692Z,49.63
2023-01-17T01:54:09.688Z,45.28
2023-01-17T01:55:09.677Z,44.96
2023-01-17T01:56:09.718Z,46.73
2023-01-17T01:57:09.684Z,47.70
2023-01-17T01:58:09.668Z,47.86
2023-01-17T01:59:09.635Z,47.86
2023-01-17T02:00:09.641Z,45.44
2023-01-17T02:01:09.810Z,45.92
2023-01-17T02:02:09.674Z,46.25
2023-01-17T02:03:09.629Z,49.47
2023-01-17T02:04:09.663Z,54.95
2023-01-17T02:05:09.584Z,47.05
2023-01-17T02:06:09.586Z,45.76
2023-01-17T02:07:09.609Z,46.08
2023-01-17T02:08:09.573Z,45.60
2023-01-17T02:09:09.562Z,46.57
2023-01-17T02:10:09.550Z,47.05
2023-01-17T02:11:09.541Z,45.28
2023-01-17T02:12:09.532Z,48.98
2023-01-17T02:13:09.542Z,48.82
2023-01-17T02:14:09.520Z,49.15
2023-01-17T02:15:09.497Z,45.12
2023-01-17T02:16:09.514Z,46.41
2023-01-17T02:17:09.481Z,49.63
2023-01-17T02:18:09.518Z,46.25
2023-01-17T02:19:09.468Z,46.41
2023-01-17T02:20:09.461Z,51.08
2023-01-17T02:21:09.439Z,46.57
2023-01-17T02:22:09.438Z,45.92
2023-01-17T02:23:09.427Z,46.25
2023-01-17T02:24:09.459Z,45.76
2023-01-17T02:25:09.400Z,44.96
2023-01-17T02:26:09.399Z,45.44
2023-01-17T02:27:09.382Z,46.41
2023-01-17T02:28:09.400Z,47.21
2023-01-17T02:29:09.370Z,50.11
2023-01-17T02:30:09.358Z,45.44
2023-01-17T02:31:09.339Z,45.76
2023-01-17T02:32:09.337Z,48.66
2023-01-17T02:33:09.344Z,46.25
2023-01-17T02:34:09.318Z,44.31
2023-01-17T02:35:09.315Z,50.11
2023-01-17T02:36:09.297Z,46.73
2023-01-17T02:37:09.289Z,49.15
2023-01-17T02:38:09.270Z,48.50
2023-01-17T02:39:09.286Z,44.79
2023-01-17T02:40:09.271Z,44.63
2023-01-17T02:41:09.243Z,49.79
2023-01-17T02:42:09.235Z,48.50
2023-01-17T02:43:09.236Z,46.08
2023-01-17T02:44:09.238Z,47.21
2023-01-17T02:45:09.231Z,50.60
2023-01-17T02:46:09.985Z,46.25
2023-01-17T02:47:10.198Z,45.12
2023-01-17T02:48:09.191Z,49.63
2023-01-17T02:49:09.172Z,46.73
2023-01-17T02:50:09.168Z,45.44
2023-01-17T02:51:09.159Z,48.18
2023-01-17T02:52:09.148Z,45.92
2023-01-17T02:53:09.148Z,45.92
2023-01-17T02:54:09.118Z,48.50
2023-01-17T02:55:09.124Z,49.15
2023-01-17T02:56:09.124Z,50.11
2023-01-17T02:57:09.077Z,47.86
2023-01-17T02:58:09.090Z,47.86
2023-01-17T02:59:09.081Z,45.12
2023-01-17T03:00:09.085Z,46.25
2023-01-17T03:01:09.229Z,48.66
2023-01-17T03:02:09.147Z,47.86
2023-01-17T03:03:09.028Z,49.95
2023-01-17T03:04:09.033Z,46.57
2023-01-17T03:05:09.028Z,46.73
2023-01-17T03:06:09.048Z,45.76
2023-01-17T03:07:08.983Z,48.34
2023-01-17T03:08:09.998Z,49.79
2023-01-17T03:09:08.981Z,46.41
2023-01-17T03:10:09.003Z,51.88
2023-01-17T03:11:08.963Z,50.60
2023-01-17T03:12:08.944Z,46.25
2023-01-17T03:13:08.944Z,50.11
2023-01-17T03:14:08.934Z,45.44
2023-01-17T03:15:08.943Z,45.44
2023-01-17T03:16:09.998Z,47.05
2023-01-17T03:17:08.907Z,46.89
2023-01-17T03:18:08.894Z,46.73
2023-01-17T03:19:08.888Z,47.53
2023-01-17T03:20:08.886Z,48.18
2023-01-17T03:21:08.884Z,46.25
2023-01-17T03:22:08.860Z,53.33
2023-01-17T03:23:08.851Z,50.27
2023-01-17T03:24:08.854Z,49.79
2023-01-17T03:25:08.827Z,49.31
2023-01-17T03:26:08.813Z,48.34
2023-01-17T03:27:08.835Z,49.15
2023-01-17T03:28:08.790Z,48.50
2023-01-17T03:29:08.805Z,52.37
2023-01-17T03:30:08.770Z,50.76
2023-01-17T03:31:08.765Z,47.53
2023-01-17T03:32:08.756Z,45.28
2023-01-17T03:33:08.755Z,45.44
2023-01-17T03:34:08.753Z,47.86
2023-01-17T03:35:08.753Z,53.17
2023-01-17T03:36:08.723Z,50.92
2023-01-17T03:37:08.701Z,50.11
2023-01-17T03:38:08.691Z,50.27
2023-01-17T03:39:09.697Z,51.08
2023-01-17T03:40:08.705Z,51.08
2023-01-17T03:41:08.683Z,48.82
2023-01-17T03:42:08.689Z,48.34
2023-01-17T03:43:08.709Z,49.15
2023-01-17T03:44:08.636Z,48.02
2023-01-17T03:45:08.628Z,48.02
2023-01-17T03:46:08.701Z,49.15
2023-01-17T03:47:08.621Z,51.56
2023-01-17T03:48:08.631Z,49.15
2023-01-17T03:49:08.618Z,54.46
2023-01-17T03:50:08.598Z,52.05
2023-01-17T03:51:08.586Z,51.40
2023-01-17T03:52:08.553Z,53.33
2023-01-17T03:53:08.555Z,52.05
2023-01-17T03:54:08.559Z,50.92
2023-01-17T03:55:08.563Z,52.37
2023-01-17T03:56:08.517Z,51.40
2023-01-17T03:57:08.526Z,54.79
2023-01-17T03:58:08.513Z,54.14
2023-01-17T03:59:08.496Z,50.27
2023-01-17T04:00:08.508Z,50.27
2023-01-17T04:01:08.563Z,48.98
2023-01-17T04:02:08.648Z,48.18
2023-01-17T04:03:08.467Z,51.24
2023-01-17T04:04:08.438Z,49.47
2023-01-17T04:05:08.438Z,49.79
2023-01-17T04:06:08.453Z,51.08
2023-01-17T04:07:08.466Z,52.37
2023-01-17T04:08:08.418Z,51.40
2023-01-17T04:09:08.407Z,49.79
2023-01-17T04:10:08.396Z,52.53
2023-01-17T04:11:08.399Z,53.66
2023-01-17T04:12:08.375Z,51.56
2023-01-17T04:13:08.367Z,51.08
2023-01-17T04:14:08.356Z,49.79
2023-01-17T04:15:08.347Z,52.37
2023-01-17T04:16:08.340Z,53.98
2023-01-17T04:17:08.333Z,51.72
2023-01-17T04:18:08.339Z,49.95
2023-01-17T04:19:08.301Z,47.37
2023-01-17T04:20:08.283Z,52.69
2023-01-17T04:21:08.292Z,51.88
2023-01-17T04:22:08.287Z,51.24
2023-01-17T04:23:08.274Z,51.40
2023-01-17T04:24:08.264Z,50.11
2023-01-17T04:25:08.245Z,49.47
2023-01-17T04:26:08.251Z,49.95
2023-01-17T04:27:08.251Z,52.69
2023-01-17T04:28:08.209Z,52.69
2023-01-17T04:29:08.201Z,53.98
2023-01-17T04:30:08.195Z,53.33
2023-01-17T04:31:08.264Z,52.53
2023-01-17T04:32:08.193Z,48.66
2023-01-17T04:33:08.172Z,53.01
2023-01-17T04:34:08.160Z,53.17
2023-01-17T04:35:08.158Z,55.59
2023-01-17T04:36:08.144Z,52.37
2023-01-17T04:37:08.125Z,54.30
2023-01-17T04:38:08.139Z,54.30
2023-01-17T04:39:08.118Z,53.33
2023-01-17T04:40:08.118Z,52.37
2023-01-17T04:41:08.115Z,53.66
2023-01-17T04:42:08.088Z,55.27
2023-01-17T04:43:08.080Z,55.75
2023-01-17T04:44:08.075Z,54.14
2023-01-17T04:45:08.051Z,54.46
2023-01-17T04:46:08.073Z,52.37
2023-01-17T04:47:08.035Z,55.75
2023-01-17T04:48:08.041Z,53.82
2023-01-17T04:49:08.027Z,51.56
2023-01-17T04:50:08.005Z,51.40
2023-01-17T04:51:08.019Z,56.07
2023-01-17T04:52:07.987Z,51.40
2023-01-17T04:53:07.977Z,50.60
2023-01-17T04:54:08.024Z,51.72
2023-01-17T04:55:07.958Z,53.50
2023-01-17T04:56:07.984Z,55.27
2023-01-17T04:57:07.958Z,54.14
2023-01-17T04:58:07.941Z,52.21
2023-01-17T04:59:07.935Z,51.40
2023-01-17T05:00:07.943Z,54.95
2023-01-17T05:01:08.080Z,53.33
2023-01-17T05:02:07.915Z,52.37
2023-01-17T05:03:07.895Z,52.69
2023-01-17T05:04:07.900Z,53.82
2023-01-17T05:05:07.889Z,52.37
2023-01-17T05:06:07.876Z,53.66
2023-01-17T05:07:07.851Z,53.33
2023-01-17T05:08:07.872Z,55.59
2023-01-17T05:09:07.839Z,53.98
2023-01-17T05:10:07.824Z,55.75
2023-01-17T05:11:07.843Z,55.59
2023-01-17T05:12:07.793Z,54.46
2023-01-17T05:13:07.790Z,57.85
2023-01-17T05:14:07.798Z,55.91
2023-01-17T05:15:07.798Z,54.62
2023-01-17T05:16:07.833Z,52.85
2023-01-17T05:17:07.758Z,52.53
2023-01-17T05:18:07.742Z,56.24
2023-01-17T05:19:07.736Z,51.40
2023-01-17T05:20:07.742Z,51.88
2023-01-17T05:21:07.744Z,54.30
2023-01-17T05:22:07.729Z,54.79
2023-01-17T05:23:07.701Z,55.75
2023-01-17T05:24:07.689Z,54.30
2023-01-17T05:25:07.703Z,56.24
2023-01-17T05:26:07.706Z,56.24
2023-01-17T05:27:07.655Z,52.85
2023-01-17T05:28:07.646Z,54.79
2023-01-17T05:29:07.638Z,57.20
2023-01-17T05:30:07.625Z,54.62
2023-01-17T05:31:07.659Z,55.27
2023-01-17T05:32:07.623Z,53.98
2023-01-17T05:33:07.599Z,56.07
2023-01-17T05:34:07.589Z,54.95
2023-01-17T05:35:07.634Z,54.62
2023-01-17T05:36:07.572Z,57.69
2023-01-17T05:37:07.557Z,56.24
2023-01-17T05:38:07.558Z,55.75
2023-01-17T05:39:07.541Z,55.27
2023-01-17T05:40:07.529Z,54.30
2023-01-17T05:41:07.561Z,56.72
2023-01-17T05:42:07.528Z,54.79
2023-01-17T05:43:07.531Z,55.43
2023-01-17T05:44:07.508Z,54.14
2023-01-17T05:45:07.508Z,57.04
2023-01-17T05:46:07.499Z,53.66
2023-01-17T05:47:07.517Z,55.11
2023-01-17T05:48:07.458Z,56.07
2023-01-17T05:49:07.473Z,55.91
2023-01-17T05:50:07.434Z,57.20
2023-01-17T05:51:07.427Z,56.07
2023-01-17T05:52:07.420Z,56.24
2023-01-17T05:53:07.427Z,54.30
2023-01-17T05:54:07.407Z,53.33
2023-01-17T05:55:07.390Z,57.52
2023-01-17T05:56:07.394Z,58.01
2023-01-17T05:57:07.389Z,54.95
2023-01-17T05:58:07.380Z,55.43
2023-01-17T05:59:07.343Z,54.30
2023-01-17T06:00:07.348Z,54.14
2023-01-17T06:01:07.346Z,55.43
2023-01-17T06:02:07.318Z,56.07
2023-01-17T06:03:07.311Z,56.88
2023-01-17T06:04:07.337Z,55.27
2023-01-17T06:05:07.320Z,54.95
2023-01-17T06:06:07.334Z,56.24
2023-01-17T06:07:07.298Z,55.75
2023-01-17T06:08:07.301Z,54.95
2023-01-17T06:09:07.283Z,57.36
2023-01-17T06:10:07.286Z,56.88
2023-01-17T06:11:07.264Z,57.04
2023-01-17T06:12:07.222Z,56.07
2023-01-17T06:13:07.218Z,57.69
2023-01-17T06:14:07.210Z,56.24
2023-01-17T06:15:07.205Z,57.52
2023-01-17T06:16:07.282Z,56.24
2023-01-17T06:17:07.171Z,55.91
2023-01-17T06:18:07.187Z,55.75
2023-01-17T06:19:07.160Z,55.27
2023-01-17T06:20:07.162Z,56.72
2023-01-17T06:21:07.150Z,56.07
2023-01-17T06:22:07.153Z,56.72
2023-01-17T06:23:07.141Z,57.85
2023-01-17T06:24:07.108Z,58.49
2023-01-17T06:25:07.097Z,57.20
2023-01-17T06:26:07.088Z,56.56
2023-01-17T06:27:07.085Z,57.69
2023-01-17T06:28:07.104Z,57.04
2023-01-17T06:29:07.067Z,57.52
2023-01-17T06:30:07.052Z,55.91
2023-01-17T06:31:07.131Z,55.43
2023-01-17T06:32:07.041Z,57.69
2023-01-17T06:33:07.038Z,57.04
2023-01-17T06:34:07.031Z,57.85
2023-01-17T06:35:07.009Z,55.27
2023-01-17T06:36:07.005Z,57.20
2023-01-17T06:37:06.993Z,56.40
2023-01-17T06:38:06.997Z,56.56
2023-01-17T06:39:06.961Z,56.40
2023-01-17T06:40:06.955Z,56.07
2023-01-17T06:41:06.961Z,55.91
2023-01-17T06:42:06.937Z,57.04
2023-01-17T06:43:06.926Z,56.24
2023-01-17T06:44:06.936Z,56.24
2023-01-17T06:45:06.901Z,56.88
2023-01-17T06:46:06.915Z,57.69
2023-01-17T06:47:06.881Z,57.69
2023-01-17T06:48:06.873Z,57.20
2023-01-17T06:49:06.881Z,55.59
2023-01-17T06:50:06.855Z,57.69
2023-01-17T06:51:06.864Z,57.04
2023-01-17T06:52:06.835Z,55.75
2023-01-17T06:53:06.873Z,55.27
2023-01-17T06:54:06.837Z,55.11
2023-01-17T06:55:06.805Z,56.40
2023-01-17T06:56:07.809Z,56.56
2023-01-17T06:57:06.809Z,54.30
2023-01-17T06:58:06.795Z,56.24
2023-01-17T06:59:06.821Z,55.75
2023-01-17T07:00:06.793Z,57.52
2023-01-17T07:01:06.805Z,55.91
2023-01-17T07:02:06.748Z,56.56
2023-01-17T07:03:06.732Z,59.30
2023-01-17T07:04:06.763Z,57.04
2023-01-17T07:05:06.734Z,57.20
2023-01-17T07:06:06.706Z,56.07
2023-01-17T07:07:06.722Z,53.98
2023-01-17T07:08:06.680Z,54.14
2023-01-17T07:09:06.663Z,56.88
2023-01-17T07:10:06.676Z,54.95
2023-01-17T07:11:06.673Z,58.01
2023-01-17T07:12:06.646Z,57.52
2023-01-17T07:13:06.633Z,56.24
2023-01-17T07:14:06.615Z,54.95
2023-01-17T07:15:06.618Z,53.82
2023-01-17T07:16:06.642Z,55.43
2023-01-17T07:17:06.593Z,56.40
2023-01-17T07:18:06.593Z,56.24
2023-01-17T07:19:06.598Z,56.88
2023-01-17T07:20:06.562Z,56.40
2023-01-17T07:21:06.555Z,56.72
2023-01-17T07:22:06.564Z,55.91
2023-01-17T07:23:06.535Z,57.04
2023-01-17T07:24:06.538Z,56.88
2023-01-17T07:25:06.509Z,56.56
2023-01-17T07:26:06.500Z,58.33
2023-01-17T07:27:06.533Z,57.69
2023-01-17T07:28:06.499Z,57.85
2023-01-17T07:29:06.480Z,56.40
2023-01-17T07:30:06.471Z,55.43
2023-01-17T07:31:06.489Z,53.66
2023-01-17T07:32:06.490Z,56.40
2023-01-17T07:33:06.465Z,55.91
2023-01-17T07:34:06.447Z,55.27
2023-01-17T07:35:06.439Z,54.95
2023-01-17T07:36:06.430Z,54.62
2023-01-17T07:37:06.442Z,56.40
2023-01-17T07:38:06.424Z,55.59
2023-01-17T07:39:06.489Z,56.24
2023-01-17T07:40:06.385Z,55.59
2023-01-17T07:41:06.364Z,57.20
2023-01-17T07:42:06.361Z,56.88
2023-01-17T07:43:06.367Z,57.85
2023-01-17T07:44:06.327Z,55.91
2023-01-17T07:45:15.707Z,54.30
2023-01-17T07:46:06.347Z,55.75
2023-01-17T07:47:06.322Z,54.79
2023-01-17T07:48:06.293Z,56.56
2023-01-17T07:49:06.276Z,56.56
2023-01-17T07:50:06.276Z,55.11
2023-01-17T07:51:06.285Z,56.24
2023-01-17T07:52:06.264Z,55.75
2023-01-17T07:53:06.262Z,56.88
2023-01-17T07:54:06.235Z,56.24
2023-01-17T07:55:06.228Z,57.69
2023-01-17T07:56:06.243Z,56.07
2023-01-17T07:57:06.216Z,53.66
2023-01-17T07:58:06.194Z,54.95
2023-01-17T07:59:06.188Z,57.36
2023-01-17T08:00:06.193Z,55.11
2023-01-17T08:01:06.271Z,55.91
2023-01-17T08:02:06.242Z,56.07
2023-01-17T08:03:06.158Z,57.36
2023-01-17T08:04:06.175Z,56.07
2023-01-17T08:05:06.138Z,56.56
2023-01-17T08:06:06.155Z,56.56
2023-01-17T08:07:06.126Z,54.30
2023-01-17T08:08:06.098Z,56.56
2023-01-17T08:09:06.091Z,55.11
2023-01-17T08:10:06.078Z,55.43
2023-01-17T08:11:06.078Z,56.56
2023-01-17T08:12:06.076Z,55.11
2023-01-17T08:13:06.055Z,55.75
2023-01-17T08:14:06.044Z,53.98
2023-01-17T08:15:06.039Z,54.30
2023-01-17T08:16:06.090Z,56.56
2023-01-17T08:17:06.039Z,53.33
2023-01-17T08:18:06.009Z,55.91
2023-01-17T08:19:05.991Z,53.98
2023-01-17T08:20:05.980Z,53.98
2023-01-17T08:21:05.973Z,53.01
2023-01-17T08:22:05.976Z,53.17
2023-01-17T08:23:05.971Z,52.53
2023-01-17T08:24:05.967Z,53.50
2023-01-17T08:25:05.951Z,53.01
2023-01-17T08:26:05.944Z,57.36
2023-01-17T08:27:05.907Z,53.82
2023-01-17T08:28:05.915Z,54.46
2023-01-17T08:29:05.890Z,56.72
2023-01-17T08:30:05.882Z,54.46
2023-01-17T08:31:05.867Z,55.91
2023-01-17T08:32:05.882Z,54.95
2023-01-17T08:33:05.867Z,53.82
2023-01-17T08:34:05.849Z,55.43
2023-01-17T08:35:05.832Z,53.82
2023-01-17T08:36:05.820Z,54.95
2023-01-17T08:37:05.832Z,56.72
2023-01-17T08:38:05.806Z,55.11
2023-01-17T08:39:05.803Z,55.11
2023-01-17T08:40:05.778Z,54.46
2023-01-17T08:41:05.783Z,56.24
2023-01-17T08:42:05.765Z,55.27
2023-01-17T08:43:05.807Z,53.33
2023-01-17T08:44:05.754Z,55.11
2023-01-17T08:45:05.732Z,56.72
2023-01-17T08:46:05.761Z,54.79
2023-01-17T08:47:05.716Z,53.98
2023-01-17T08:48:05.731Z,51.88
2023-01-17T08:49:05.704Z,52.69
2023-01-17T08:50:05.717Z,53.66
2023-01-17T08:51:05.682Z,54.46
2023-01-17T08:52:05.678Z,56.24
2023-01-17T08:53:05.659Z,53.33
2023-01-17T08:54:05.648Z,55.11
2023-01-17T08:55:05.665Z,52.69
2023-01-17T08:56:05.653Z,54.62
2023-01-17T08:57:05.616Z,50.92
2023-01-17T08:58:05.607Z,54.14
2023-01-17T08:59:05.608Z,55.43
2023-01-17T09:00:05.617Z,55.75
2023-01-17T09:01:05.807Z,57.36
2023-01-17T09:02:05.741Z,56.24
2023-01-17T09:03:05.563Z,53.33
2023-01-17T09:04:05.658Z,55.11
2023-01-17T09:05:05.555Z,57.36
2023-01-17T09:06:05.598Z,54.95
2023-01-17T09:07:05.537Z,55.59
2023-01-17T09:08:05.519Z,53.82
2023-01-17T09:09:05.516Z,54.14
2023-01-17T09:10:05.514Z,53.17
2023-01-17T09:11:05.516Z,53.33
2023-01-17T09:12:05.481Z,52.53
2023-01-17T09:13:05.530Z,51.88
2023-01-17T09:14:05.469Z,52.37
2023-01-17T09:15:05.457Z,55.43
2023-01-17T09:16:05.441Z,60.42
2023-01-17T09:17:05.429Z,56.24
2023-01-17T09:18:05.454Z,55.75
2023-01-17T09:19:05.426Z,58.17
2023-01-17T09:20:05.459Z,55.43
2023-01-17T09:21:05.403Z,55.91
2023-01-17T09:22:05.383Z,53.50
2023-01-17T09:23:05.387Z,54.95
2023-01-17T09:24:05.367Z,56.07
2023-01-17T09:25:05.393Z,55.43
2023-01-17T09:26:05.351Z,58.01
2023-01-17T09:27:05.343Z,57.36
2023-01-17T09:28:05.325Z,54.14
2023-01-17T09:29:06.319Z,56.56
2023-01-17T09:30:05.350Z,58.33
2023-01-17T09:31:05.340Z,54.30
2023-01-17T09:32:05.292Z,55.43
2023-01-17T09:33:05.278Z,55.59
2023-01-17T09:34:05.265Z,54.30
2023-01-17T09:35:05.282Z,54.95
2023-01-17T09:36:05.264Z,53.50
2023-01-17T09:37:05.249Z,55.27
2023-01-17T09:38:05.236Z,54.95
2023-01-17T09:39:05.231Z,54.79
2023-01-17T09:40:05.244Z,56.07
2023-01-17T09:41:05.206Z,56.24
2023-01-17T09:42:05.204Z,58.17
2023-01-17T09:43:05.193Z,55.43
2023-01-17T09:44:05.177Z,56.24
2023-01-17T09:45:05.186Z,56.56
2023-01-17T09:46:05.247Z,57.36
2023-01-17T09:47:05.151Z,53.82
2023-01-17T09:48:05.149Z,54.46
2023-01-17T09:49:05.141Z,56.24
2023-01-17T09:50:05.131Z,53.98
2023-01-17T09:51:05.113Z,52.85
2023-01-17T09:52:05.117Z,53.50
2023-01-17T09:53:05.109Z,55.91
2023-01-17T09:54:05.101Z,53.50
2023-01-17T09:55:07.288Z,54.30
2023-01-17T09:56:05.061Z,53.98
2023-01-17T09:57:05.049Z,55.43
2023-01-17T09:58:05.052Z,57.20
2023-01-17T09:59:05.018Z,54.62
2023-01-17T10:00:05.034Z,53.98
2023-01-17T10:01:05.080Z,55.43
2023-01-17T10:02:05.158Z,55.43
2023-01-17T10:03:05.160Z,59.62
2023-01-17T10:04:05.021Z,55.27
2023-01-17T10:05:04.987Z,54.95
2023-01-17T10:06:04.961Z,54.30
2023-01-17T10:07:04.952Z,55.91
2023-01-17T10:08:04.953Z,55.43
2023-01-17T10:09:04.989Z,56.56
2023-01-17T10:10:04.914Z,55.27
2023-01-17T10:11:04.919Z,55.27
2023-01-17T10:12:04.930Z,55.43
2023-01-17T10:13:04.892Z,53.98
2023-01-17T10:14:04.888Z,52.69
2023-01-17T10:15:04.880Z,57.69
2023-01-17T10:16:04.896Z,57.52
2023-01-17T10:17:04.848Z,56.24
2023-01-17T10:18:04.840Z,54.95
2023-01-17T10:19:04.842Z,54.79
2023-01-17T10:20:04.835Z,56.40
2023-01-17T10:21:04.828Z,55.91
2023-01-17T10:22:04.822Z,54.14
2023-01-17T10:23:04.789Z,49.79
2023-01-17T10:24:04.777Z,53.66
2023-01-17T10:25:04.767Z,56.56
2023-01-17T10:26:04.758Z,53.17
2023-01-17T10:27:04.762Z,50.11
2023-01-17T10:28:04.745Z,55.43
2023-01-17T10:29:04.730Z,54.46
2023-01-17T10:30:04.714Z,54.95
2023-01-17T10:31:04.767Z,54.46
2023-01-17T10:32:04.712Z,56.24
2023-01-17T10:33:04.691Z,54.62
2023-01-17T10:34:04.691Z,56.07
2023-01-17T10:35:04.664Z,55.11
2023-01-17T10:36:04.669Z,56.07
2023-01-17T10:37:04.650Z,56.56
2023-01-17T10:38:05.663Z,58.49
2023-01-17T10:39:04.624Z,58.01
2023-01-17T10:40:04.713Z,56.24
2023-01-17T10:41:04.656Z,54.79
2023-01-17T10:42:04.622Z,55.59
2023-01-17T10:43:04.594Z,57.52
2023-01-17T10:44:04.591Z,54.62
2023-01-17T10:45:04.570Z,56.56
2023-01-17T10:46:04.630Z,56.07
2023-01-17T10:47:04.564Z,55.43
2023-01-17T10:48:04.550Z,58.01
2023-01-17T10:49:04.536Z,55.75
2023-01-17T10:50:04.527Z,56.88
2023-01-17T10:51:04.521Z,57.36
2023-01-17T10:52:04.519Z,58.33
2023-01-17T10:53:04.543Z,58.49
2023-01-17T10:54:04.479Z,57.20
2023-01-17T10:55:04.477Z,56.56
2023-01-17T10:56:04.472Z,56.07
2023-01-17T10:57:04.461Z,57.20
2023-01-17T10:58:04.458Z,56.40
2023-01-17T10:59:04.431Z,56.40
2023-01-17T11:00:04.448Z,56.07
2023-01-17T11:01:04.550Z,56.24
2023-01-17T11:02:04.451Z,56.07
2023-01-17T11:03:04.441Z,56.40
2023-01-17T11:04:04.390Z,55.27
2023-01-17T11:05:04.388Z,57.69
2023-01-17T11:06:04.368Z,54.46
2023-01-17T11:07:04.354Z,56.24
2023-01-17T11:08:04.353Z,57.36
2023-01-17T11:09:04.336Z,55.75
2023-01-17T11:10:04.358Z,57.20
2023-01-17T11:11:04.325Z,57.20
2023-01-17T11:12:04.320Z,57.04
2023-01-17T11:13:04.319Z,54.46
2023-01-17T11:14:04.289Z,55.91
2023-01-17T11:15:04.288Z,55.27
2023-01-17T11:16:04.437Z,56.56
2023-01-17T11:17:04.279Z,56.88
2023-01-17T11:18:04.281Z,55.43
2023-01-17T11:19:04.242Z,57.04
2023-01-17T11:20:04.226Z,56.56
2023-01-17T11:21:04.223Z,56.56
2023-01-17T11:22:04.219Z,56.72
2023-01-17T11:23:04.228Z,55.43
2023-01-17T11:24:04.194Z,56.24
2023-01-17T11:25:04.185Z,57.36
2023-01-17T11:26:04.189Z,56.07
2023-01-17T11:27:04.188Z,56.56
2023-01-17T11:28:04.159Z,58.17
2023-01-17T11:29:04.154Z,53.98
2023-01-17T11:30:04.140Z,55.75
2023-01-17T11:31:04.269Z,53.33
2023-01-17T11:32:04.126Z,53.98
2023-01-17T11:33:04.131Z,55.91
2023-01-17T11:34:04.102Z,53.33
2023-01-17T11:35:04.101Z,54.95
2023-01-17T11:36:04.121Z,52.37
2023-01-17T11:37:04.064Z,55.11
2023-01-17T11:38:04.121Z,55.59
2023-01-17T11:39:04.066Z,55.43
2023-01-17T11:40:04.058Z,57.20
2023-01-17T11:41:04.041Z,56.56
2023-01-17T11:42:04.026Z,56.24
2023-01-17T11:43:04.023Z,55.59
2023-01-17T11:44:03.992Z,55.59
2023-01-17T11:45:03.993Z,55.91
2023-01-17T11:46:04.074Z,56.40
2023-01-17T11:47:03.976Z,55.43
2023-01-17T11:48:03.990Z,53.82
2023-01-17T11:49:03.957Z,54.79
2023-01-17T11:50:03.936Z,56.56
2023-01-17T11:51:03.949Z,56.72
2023-01-17T11:52:03.934Z,54.95
2023-01-17T11:53:03.931Z,56.07
2023-01-17T11:54:03.912Z,59.30
2023-01-17T11:55:03.912Z,59.14
2023-01-17T11:56:03.894Z,56.72
2023-01-17T11:57:03.874Z,56.72
2023-01-17T11:58:03.861Z,56.56
2023-01-17T11:59:03.868Z,57.04
2023-01-17T12:00:03.860Z,55.27
2023-01-17T12:01:03.873Z,55.43
2023-01-17T12:02:03.845Z,57.04
2023-01-17T12:03:03.810Z,57.04
2023-01-17T12:04:03.915Z,56.56
2023-01-17T12:05:03.862Z,55.59
2023-01-17T12:06:03.779Z,56.56
2023-01-17T12:07:03.771Z,55.91
2023-01-17T12:08:03.767Z,55.11
2023-01-17T12:09:03.763Z,55.11
2023-01-17T12:10:03.772Z,55.59
2023-01-17T12:11:03.732Z,55.59
2023-01-17T12:12:04.539Z,55.75
2023-01-17T12:13:04.718Z,55.27
2023-01-17T12:14:03.719Z,56.72
2023-01-17T12:15:03.717Z,56.24
2023-01-17T12:16:03.763Z,53.50
2023-01-17T12:17:03.717Z,56.56
2023-01-17T12:18:03.667Z,54.79
2023-01-17T12:19:03.681Z,56.07
2023-01-17T12:20:03.654Z,55.91
2023-01-17T12:21:03.672Z,56.72
2023-01-17T12:22:03.637Z,53.66
2023-01-17T12:23:03.623Z,54.14
2023-01-17T12:24:03.623Z,56.40
2023-01-17T12:25:03.633Z,55.59
2023-01-17T12:26:03.596Z,55.75
2023-01-17T12:27:03.583Z,57.20
2023-01-17T12:28:03.586Z,57.69
2023-01-17T12:29:03.575Z,57.04
2023-01-17T12:30:03.560Z,57.04
2023-01-17T12:31:03.599Z,56.88
2023-01-17T12:32:03.538Z,56.24
2023-01-17T12:33:03.531Z,56.24
2023-01-17T12:34:03.531Z,56.56
2023-01-17T12:35:03.529Z,55.43
2023-01-17T12:36:03.513Z,54.95
2023-01-17T12:37:03.519Z,56.40
2023-01-17T12:38:05.140Z,55.75
2023-01-17T12:39:04.473Z,55.75
2023-01-17T12:40:03.457Z,56.40
2023-01-17T12:41:03.470Z,54.95
2023-01-17T12:42:03.505Z,56.56
2023-01-17T12:43:03.441Z,55.75
2023-01-17T12:44:03.423Z,57.20
2023-01-17T12:45:03.404Z,56.88
2023-01-17T12:46:03.407Z,57.20
2023-01-17T12:47:03.401Z,53.50
2023-01-17T12:48:03.396Z,56.56
2023-01-17T12:49:03.391Z,56.40
2023-01-17T12:50:03.389Z,55.75
2023-01-17T12:51:03.428Z,56.88
2023-01-17T12:52:03.361Z,55.91